sensor_id;sensor_type;location;lat;lon;timestamp;P1;durP1;ratioP1;P2;durP2;ratioP2
71969;SDS011;59838;52.152;5.436;2023-04-01T00:02:02;7.88;;;3.28;;
71969;SDS011;59838;52.152;5.436;2023-04-01T00:04:29;9.13;;;4.13;;
71969;SDS011;59838;52.152;5.436;2023-04-01T00:06:55;7.95;;;3.85;;
71969;SDS011;59838;52.152;5.436;2023-04-01T00:09:22;6.97;;;3.28;;
71969;SDS011;59838;52.152;5.436;2023-04-01T00:11:49;11.20;;;3.67;;
71969;SDS011;59838;52.152;5.436;2023-04-01T00:14:16;12.93;;;4.40;;
71969;SDS011;59838;52.152;5.436;2023-04-01T00:16:42;9.55;;;4.63;;
71969;SDS011;59838;52.152;5.436;2023-04-01T00:19:09;15.57;;;3.67;;
71969;SDS011;59838;52.152;5.436;2023-04-01T00:21:35;11.93;;;3.70;;
71969;SDS011;59838;52.152;5.436;2023-04-01T00:24:02;10.10;;;3.73;;
71969;SDS011;59838;52.152;5.436;2023-04-01T00:26:29;9.55;;;3.95;;
71969;SDS011;59838;52.152;5.436;2023-04-01T00:28:56;13.32;;;4.43;;
71969;SDS011;59838;52.152;5.436;2023-04-01T00:31:22;15.02;;;3.75;;
71969;SDS011;59838;52.152;5.436;2023-04-01T00:33:49;8.98;;;3.72;;
71969;SDS011;59838;52.152;5.436;2023-04-01T00:36:18;14.30;;;4.67;;
71969;SDS011;59838;52.152;5.436;2023-04-01T00:38:48;12.30;;;3.88;;
71969;SDS011;59838;52.152;5.436;2023-04-01T00:41:15;10.95;;;4.22;;
71969;SDS011;59838;52.152;5.436;2023-04-01T00:43:43;13.88;;;4.93;;
71969;SDS011;59838;52.152;5.436;2023-04-01T00:46:12;14.82;;;4.22;;
71969;SDS011;59838;52.152;5.436;2023-04-01T00:48:39;16.37;;;3.60;;
71969;SDS011;59838;52.152;5.436;2023-04-01T00:51:11;22.45;;;4.85;;
71969;SDS011;59838;52.152;5.436;2023-04-01T00:53:43;9.80;;;4.10;;
71969;SDS011;59838;52.152;5.436;2023-04-01T00:56:17;13.98;;;4.10;;
71969;SDS011;59838;52.152;5.436;2023-04-01T00:58:48;12.15;;;4.03;;
71969;SDS011;59838;52.152;5.436;2023-04-01T01:01:18;12.73;;;3.53;;
71969;SDS011;59838;52.152;5.436;2023-04-01T01:03:48;13.90;;;4.15;;
71969;SDS011;59838;52.152;5.436;2023-04-01T01:14:53;7.97;;;4.03;;
71969;SDS011;59838;52.152;5.436;2023-04-01T01:17:33;9.63;;;3.35;;
71969;SDS011;59838;52.152;5.436;2023-04-01T01:20:24;10.35;;;4.20;;
71969;SDS011;59838;52.152;5.436;2023-04-01T01:35:16;12.10;;;5.57;;
71969;SDS011;59838;52.152;5.436;2023-04-01T01:37:47;20.63;;;5.53;;
71969;SDS011;59838;52.152;5.436;2023-04-01T01:40:18;14.25;;;5.05;;
71969;SDS011;59838;52.152;5.436;2023-04-01T01:42:48;13.27;;;4.50;;
71969;SDS011;59838;52.152;5.436;2023-04-01T01:45:18;11.25;;;4.43;;
71969;SDS011;59838;52.152;5.436;2023-04-01T01:47:48;7.22;;;3.88;;
71969;SDS011;59838;52.152;5.436;2023-04-01T01:50:16;7.05;;;2.92;;
71969;SDS011;59838;52.152;5.436;2023-04-01T01:52:43;7.72;;;2.85;;
71969;SDS011;59838;52.152;5.436;2023-04-01T02:00:43;7.78;;;2.25;;
71969;SDS011;59838;52.152;5.436;2023-04-01T02:03:15;7.20;;;1.77;;
71969;SDS011;59838;52.152;5.436;2023-04-01T02:05:43;5.07;;;1.75;;
71969;SDS011;59838;52.152;5.436;2023-04-01T02:08:12;3.50;;;1.57;;
71969;SDS011;59838;52.152;5.436;2023-04-01T02:10:44;2.63;;;1.92;;
71969;SDS011;59838;52.152;5.436;2023-04-01T02:16:38;2.90;;;1.65;;
71969;SDS011;59838;52.152;5.436;2023-04-01T02:19:11;3.67;;;1.00;;
71969;SDS011;59838;52.152;5.436;2023-04-01T02:21:39;3.17;;;0.90;;
71969;SDS011;59838;52.152;5.436;2023-04-01T02:24:10;3.22;;;1.45;;
71969;SDS011;59838;52.152;5.436;2023-04-01T02:26:40;3.67;;;1.65;;
71969;SDS011;59838;52.152;5.436;2023-04-01T02:29:07;2.28;;;1.08;;
71969;SDS011;59838;52.152;5.436;2023-04-01T02:31:35;5.57;;;1.38;;
71969;SDS011;59838;52.152;5.436;2023-04-01T02:34:02;4.00;;;1.10;;
71969;SDS011;59838;52.152;5.436;2023-04-01T02:36:30;2.58;;;1.10;;
71969;SDS011;59838;52.152;5.436;2023-04-01T02:38:57;5.13;;;1.10;;
71969;SDS011;59838;52.152;5.436;2023-04-01T02:41:28;2.42;;;1.30;;
71969;SDS011;59838;52.152;5.436;2023-04-01T02:43:55;3.80;;;1.10;;
71969;SDS011;59838;52.152;5.436;2023-04-01T02:46:23;3.93;;;1.50;;
71969;SDS011;59838;52.152;5.436;2023-04-01T02:48:50;3.60;;;1.30;;
71969;SDS011;59838;52.152;5.436;2023-04-01T02:51:17;5.75;;;1.55;;
71969;SDS011;59838;52.152;5.436;2023-04-01T02:53:43;5.35;;;1.10;;
71969;SDS011;59838;52.152;5.436;2023-04-01T02:56:11;5.90;;;1.33;;
71969;SDS011;59838;52.152;5.436;2023-04-01T02:58:37;4.60;;;0.83;;
71969;SDS011;59838;52.152;5.436;2023-04-01T03:01:04;4.72;;;1.13;;
71969;SDS011;59838;52.152;5.436;2023-04-01T03:03:30;3.20;;;1.52;;
71969;SDS011;59838;52.152;5.436;2023-04-01T03:05:57;3.67;;;1.02;;
71969;SDS011;59838;52.152;5.436;2023-04-01T03:08:24;3.38;;;1.52;;
71969;SDS011;59838;52.152;5.436;2023-04-01T03:10:51;2.37;;;1.00;;
71969;SDS011;59838;52.152;5.436;2023-04-01T03:13:17;2.20;;;0.73;;
71969;SDS011;59838;52.152;5.436;2023-04-01T03:15:44;3.55;;;1.00;;
71969;SDS011;59838;52.152;5.436;2023-04-01T03:18:10;4.53;;;1.17;;
71969;SDS011;59838;52.152;5.436;2023-04-01T03:20:37;4.28;;;1.00;;
71969;SDS011;59838;52.152;5.436;2023-04-01T03:23:04;4.27;;;0.50;;
71969;SDS011;59838;52.152;5.436;2023-04-01T03:25:31;4.78;;;0.93;;
71969;SDS011;59838;52.152;5.436;2023-04-01T03:27:58;3.15;;;0.73;;
71969;SDS011;59838;52.152;5.436;2023-04-01T03:30:25;3.85;;;0.85;;
71969;SDS011;59838;52.152;5.436;2023-04-01T03:32:52;4.00;;;0.90;;
71969;SDS011;59838;52.152;5.436;2023-04-01T03:35:19;4.80;;;0.87;;
71969;SDS011;59838;52.152;5.436;2023-04-01T03:37:45;1.80;;;0.82;;
71969;SDS011;59838;52.152;5.436;2023-04-01T03:40:12;2.53;;;1.42;;
71969;SDS011;59838;52.152;5.436;2023-04-01T03:42:39;4.22;;;1.27;;
71969;SDS011;59838;52.152;5.436;2023-04-01T03:45:05;3.35;;;1.73;;
71969;SDS011;59838;52.152;5.436;2023-04-01T03:47:32;6.57;;;1.97;;
71969;SDS011;59838;52.152;5.436;2023-04-01T03:49:59;4.93;;;2.40;;
71969;SDS011;59838;52.152;5.436;2023-04-01T03:52:25;5.30;;;2.92;;
71969;SDS011;59838;52.152;5.436;2023-04-01T03:54:52;6.03;;;3.00;;
71969;SDS011;59838;52.152;5.436;2023-04-01T03:57:19;9.00;;;3.88;;
71969;SDS011;59838;52.152;5.436;2023-04-01T03:59:45;6.80;;;4.00;;
71969;SDS011;59838;52.152;5.436;2023-04-01T04:02:12;7.47;;;4.32;;
71969;SDS011;59838;52.152;5.436;2023-04-01T04:04:38;7.68;;;5.05;;
71969;SDS011;59838;52.152;5.436;2023-04-01T04:07:05;8.88;;;4.38;;
71969;SDS011;59838;52.152;5.436;2023-04-01T04:09:31;6.57;;;4.25;;
71969;SDS011;59838;52.152;5.436;2023-04-01T04:11:58;10.67;;;5.40;;
71969;SDS011;59838;52.152;5.436;2023-04-01T04:14:25;10.63;;;4.18;;
71969;SDS011;59838;52.152;5.436;2023-04-01T04:16:51;8.93;;;4.80;;
71969;SDS011;59838;52.152;5.436;2023-04-01T04:19:18;10.77;;;4.53;;
71969;SDS011;59838;52.152;5.436;2023-04-01T04:21:44;9.75;;;4.53;;
71969;SDS011;59838;52.152;5.436;2023-04-01T04:24:11;10.17;;;4.80;;
71969;SDS011;59838;52.152;5.436;2023-04-01T04:26:37;10.50;;;5.18;;
71969;SDS011;59838;52.152;5.436;2023-04-01T04:29:03;7.53;;;4.57;;
71969;SDS011;59838;52.152;5.436;2023-04-01T04:31:30;6.93;;;4.60;;
71969;SDS011;59838;52.152;5.436;2023-04-01T04:33:58;8.52;;;4.53;;
71969;SDS011;59838;52.152;5.436;2023-04-01T04:36:26;9.33;;;4.70;;
71969;SDS011;59838;52.152;5.436;2023-04-01T04:38:52;7.40;;;4.25;;
71969;SDS011;59838;52.152;5.436;2023-04-01T04:41:19;9.30;;;4.32;;
71969;SDS011;59838;52.152;5.436;2023-04-01T04:43:50;7.18;;;4.43;;
71969;SDS011;59838;52.152;5.436;2023-04-01T04:46:19;7.35;;;4.20;;
71969;SDS011;59838;52.152;5.436;2023-04-01T04:48:45;5.80;;;2.97;;
71969;SDS011;59838;52.152;5.436;2023-04-01T04:51:13;6.65;;;3.63;;
71969;SDS011;59838;52.152;5.436;2023-04-01T04:53:41;6.32;;;3.30;;
71969;SDS011;59838;52.152;5.436;2023-04-01T04:56:08;5.57;;;2.95;;
71969;SDS011;59838;52.152;5.436;2023-04-01T04:58:34;5.15;;;2.80;;
71969;SDS011;59838;52.152;5.436;2023-04-01T05:01:05;5.07;;;3.00;;
71969;SDS011;59838;52.152;5.436;2023-04-01T05:03:33;6.80;;;2.92;;
71969;SDS011;59838;52.152;5.436;2023-04-01T05:05:59;7.00;;;2.90;;
71969;SDS011;59838;52.152;5.436;2023-04-01T05:08:26;4.80;;;2.45;;
71969;SDS011;59838;52.152;5.436;2023-04-01T05:10:52;4.32;;;2.25;;
71969;SDS011;59838;52.152;5.436;2023-04-01T05:13:18;4.73;;;2.20;;
71969;SDS011;59838;52.152;5.436;2023-04-01T05:15:45;6.15;;;2.47;;
71969;SDS011;59838;52.152;5.436;2023-04-01T05:18:11;5.82;;;3.00;;
71969;SDS011;59838;52.152;5.436;2023-04-01T05:20:38;4.15;;;2.42;;
71969;SDS011;59838;52.152;5.436;2023-04-01T05:23:04;4.15;;;2.17;;
71969;SDS011;59838;52.152;5.436;2023-04-01T05:25:31;5.00;;;2.33;;
71969;SDS011;59838;52.152;5.436;2023-04-01T05:27:57;4.22;;;2.67;;
71969;SDS011;59838;52.152;5.436;2023-04-01T05:30:24;4.82;;;3.05;;
71969;SDS011;59838;52.152;5.436;2023-04-01T05:32:50;5.85;;;2.67;;
71969;SDS011;59838;52.152;5.436;2023-04-01T05:35:17;6.90;;;3.00;;
71969;SDS011;59838;52.152;5.436;2023-04-01T05:37:43;6.23;;;2.67;;
71969;SDS011;59838;52.152;5.436;2023-04-01T05:40:10;4.68;;;2.88;;
71969;SDS011;59838;52.152;5.436;2023-04-01T05:42:37;4.55;;;2.70;;
71969;SDS011;59838;52.152;5.436;2023-04-01T05:45:03;5.07;;;2.78;;
71969;SDS011;59838;52.152;5.436;2023-04-01T05:47:30;4.45;;;2.63;;
71969;SDS011;59838;52.152;5.436;2023-04-01T05:49:57;3.10;;;2.03;;
71969;SDS011;59838;52.152;5.436;2023-04-01T05:52:23;2.95;;;1.73;;
71969;SDS011;59838;52.152;5.436;2023-04-01T05:54:50;4.85;;;2.25;;
71969;SDS011;59838;52.152;5.436;2023-04-01T05:57:17;3.35;;;1.65;;
71969;SDS011;59838;52.152;5.436;2023-04-01T05:59:43;2.78;;;1.45;;
71969;SDS011;59838;52.152;5.436;2023-04-01T06:02:10;4.90;;;1.70;;
71969;SDS011;59838;52.152;5.436;2023-04-01T06:04:38;3.88;;;1.42;;
71969;SDS011;59838;52.152;5.436;2023-04-01T06:07:10;4.07;;;1.65;;
71969;SDS011;59838;52.152;5.436;2023-04-01T06:09:38;2.42;;;1.20;;
71969;SDS011;59838;52.152;5.436;2023-04-01T06:12:27;3.50;;;1.85;;
71969;SDS011;59838;52.152;5.436;2023-04-01T06:20:51;3.38;;;1.92;;
71969;SDS011;59838;52.152;5.436;2023-04-01T06:23:35;2.95;;;1.20;;
71969;SDS011;59838;52.152;5.436;2023-04-01T06:26:18;3.42;;;1.80;;
71969;SDS011;59838;52.152;5.436;2023-04-01T06:37:42;3.22;;;1.65;;
71969;SDS011;59838;52.152;5.436;2023-04-01T06:49:04;3.47;;;1.85;;
71969;SDS011;59838;52.152;5.436;2023-04-01T06:54:32;2.90;;;1.00;;
71969;SDS011;59838;52.152;5.436;2023-04-01T06:59:55;1.40;;;0.45;;
71969;SDS011;59838;52.152;5.436;2023-04-01T07:02:29;1.02;;;0.40;;
71969;SDS011;59838;52.152;5.436;2023-04-01T07:05:02;1.77;;;0.70;;
71969;SDS011;59838;52.152;5.436;2023-04-01T07:10:19;2.33;;;0.77;;
71969;SDS011;59838;52.152;5.436;2023-04-01T07:12:51;4.15;;;1.83;;
71969;SDS011;59838;52.152;5.436;2023-04-01T07:15:22;4.90;;;2.15;;
71969;SDS011;59838;52.152;5.436;2023-04-01T07:17:55;3.10;;;1.35;;
71969;SDS011;59838;52.152;5.436;2023-04-01T07:20:29;2.15;;;1.10;;
71969;SDS011;59838;52.152;5.436;2023-04-01T07:22:58;2.43;;;1.17;;
71969;SDS011;59838;52.152;5.436;2023-04-01T07:25:29;2.22;;;1.27;;
71969;SDS011;59838;52.152;5.436;2023-04-01T07:28:05;2.72;;;1.40;;
71969;SDS011;59838;52.152;5.436;2023-04-01T07:33:18;2.50;;;1.20;;
71969;SDS011;59838;52.152;5.436;2023-04-01T07:35:54;4.03;;;2.07;;
71969;SDS011;59838;52.152;5.436;2023-04-01T07:43:56;3.60;;;1.98;;
71969;SDS011;59838;52.152;5.436;2023-04-01T07:49:13;3.50;;;1.90;;
71969;SDS011;59838;52.152;5.436;2023-04-01T07:51:53;3.75;;;2.28;;
71969;SDS011;59838;52.152;5.436;2023-04-01T07:54:38;4.13;;;2.45;;
71969;SDS011;59838;52.152;5.436;2023-04-01T07:57:18;4.43;;;2.53;;
71969;SDS011;59838;52.152;5.436;2023-04-01T07:59:58;4.80;;;2.53;;
71969;SDS011;59838;52.152;5.436;2023-04-01T08:05:29;6.10;;;3.03;;
71969;SDS011;59838;52.152;5.436;2023-04-01T08:10:40;3.58;;;2.40;;
71969;SDS011;59838;52.152;5.436;2023-04-01T08:21:23;6.32;;;2.88;;
71969;SDS011;59838;52.152;5.436;2023-04-01T08:23:57;4.68;;;2.28;;
71969;SDS011;59838;52.152;5.436;2023-04-01T08:29:04;4.10;;;2.57;;
71969;SDS011;59838;52.152;5.436;2023-04-01T08:31:51;5.53;;;2.80;;
71969;SDS011;59838;52.152;5.436;2023-04-01T08:34:24;4.95;;;2.88;;
71969;SDS011;59838;52.152;5.436;2023-04-01T08:36:58;4.28;;;2.47;;
71969;SDS011;59838;52.152;5.436;2023-04-01T08:39:32;4.70;;;2.75;;
71969;SDS011;59838;52.152;5.436;2023-04-01T08:42:07;5.33;;;2.93;;
71969;SDS011;59838;52.152;5.436;2023-04-01T08:56:25;6.60;;;3.20;;
71969;SDS011;59838;52.152;5.436;2023-04-01T08:59:13;5.15;;;3.00;;
71969;SDS011;59838;52.152;5.436;2023-04-01T09:01:58;5.30;;;3.50;;
71969;SDS011;59838;52.152;5.436;2023-04-01T09:13:56;6.00;;;2.85;;
71969;SDS011;59838;52.152;5.436;2023-04-01T09:22:33;3.88;;;2.42;;
71969;SDS011;59838;52.152;5.436;2023-04-01T09:38:52;5.90;;;4.37;;
71969;SDS011;59838;52.152;5.436;2023-04-01T09:41:30;7.07;;;4.93;;
71969;SDS011;59838;52.152;5.436;2023-04-01T09:46:50;5.45;;;3.65;;
71969;SDS011;59838;52.152;5.436;2023-04-01T09:49:26;4.55;;;3.15;;
71969;SDS011;59838;52.152;5.436;2023-04-01T10:05:58;6.90;;;4.83;;
71969;SDS011;59838;52.152;5.436;2023-04-01T10:17:39;4.10;;;3.22;;
71969;SDS011;59838;52.152;5.436;2023-04-01T10:32:13;3.13;;;2.20;;
71969;SDS011;59838;52.152;5.436;2023-04-01T10:34:49;3.43;;;2.20;;
71969;SDS011;59838;52.152;5.436;2023-04-01T10:37:52;6.97;;;3.47;;
71969;SDS011;59838;52.152;5.436;2023-04-01T11:01:22;7.60;;;2.63;;
71969;SDS011;59838;52.152;5.436;2023-04-01T11:04:13;10.43;;;5.50;;
71969;SDS011;59838;52.152;5.436;2023-04-01T11:09:47;2.38;;;1.38;;
71969;SDS011;59838;52.152;5.436;2023-04-01T11:12:25;1.65;;;0.73;;
71969;SDS011;59838;52.152;5.436;2023-04-01T11:20:59;1.27;;;0.60;;
71969;SDS011;59838;52.152;5.436;2023-04-01T11:26:53;0.70;;;0.28;;
71969;SDS011;59838;52.152;5.436;2023-04-01T11:35:24;0.82;;;0.50;;
71969;SDS011;59838;52.152;5.436;2023-04-01T11:41:14;1.77;;;0.28;;
71969;SDS011;59838;52.152;5.436;2023-04-01T11:43:49;2.42;;;0.30;;
71969;SDS011;59838;52.152;5.436;2023-04-01T11:46:36;0.60;;;0.20;;
71969;SDS011;59838;52.152;5.436;2023-04-01T11:57:46;0.90;;;0.43;;
71969;SDS011;59838;52.152;5.436;2023-04-01T12:03:02;0.80;;;0.30;;
71969;SDS011;59838;52.152;5.436;2023-04-01T12:06:02;0.95;;;0.38;;
71969;SDS011;59838;52.152;5.436;2023-04-01T12:08:46;1.50;;;0.63;;
71969;SDS011;59838;52.152;5.436;2023-04-01T12:11:23;1.73;;;1.00;;
71969;SDS011;59838;52.152;5.436;2023-04-01T12:14:09;2.17;;;1.33;;
71969;SDS011;59838;52.152;5.436;2023-04-01T12:16:49;2.72;;;1.70;;
71969;SDS011;59838;52.152;5.436;2023-04-01T12:22:46;2.83;;;1.88;;
71969;SDS011;59838;52.152;5.436;2023-04-01T12:27:52;4.67;;;2.20;;
71969;SDS011;59838;52.152;5.436;2023-04-01T12:30:38;4.85;;;3.45;;
71969;SDS011;59838;52.152;5.436;2023-04-01T12:44:42;9.43;;;7.20;;
71969;SDS011;59838;52.152;5.436;2023-04-01T12:53:00;10.63;;;5.43;;
71969;SDS011;59838;52.152;5.436;2023-04-01T12:55:39;8.17;;;6.13;;
71969;SDS011;59838;52.152;5.436;2023-04-01T12:58:23;6.82;;;4.45;;
71969;SDS011;59838;52.152;5.436;2023-04-01T13:01:19;7.10;;;5.22;;
71969;SDS011;59838;52.152;5.436;2023-04-01T13:09:55;7.67;;;5.30;;
71969;SDS011;59838;52.152;5.436;2023-04-01T13:15:07;3.95;;;2.38;;
71969;SDS011;59838;52.152;5.436;2023-04-01T13:20:34;4.18;;;2.80;;
71969;SDS011;59838;52.152;5.436;2023-04-01T13:26:18;8.05;;;5.97;;
71969;SDS011;59838;52.152;5.436;2023-04-01T13:28:52;7.63;;;5.05;;
71969;SDS011;59838;52.152;5.436;2023-04-01T13:31:38;3.28;;;2.22;;
71969;SDS011;59838;52.152;5.436;2023-04-01T13:42:37;2.53;;;1.90;;
71969;SDS011;59838;52.152;5.436;2023-04-01T13:45:13;3.80;;;1.80;;
71969;SDS011;59838;52.152;5.436;2023-04-01T13:53:42;3.25;;;1.50;;
71969;SDS011;59838;52.152;5.436;2023-04-01T13:56:39;3.58;;;1.50;;
71969;SDS011;59838;52.152;5.436;2023-04-01T14:05:09;4.97;;;1.90;;
71969;SDS011;59838;52.152;5.436;2023-04-01T14:19:27;3.03;;;1.80;;
71969;SDS011;59838;52.152;5.436;2023-04-01T14:21:58;3.17;;;1.60;;
71969;SDS011;59838;52.152;5.436;2023-04-01T14:27:30;2.80;;;1.55;;
71969;SDS011;59838;52.152;5.436;2023-04-01T14:32:38;3.07;;;1.63;;
71969;SDS011;59838;52.152;5.436;2023-04-01T14:35:29;2.22;;;1.65;;
71969;SDS011;59838;52.152;5.436;2023-04-01T14:41:10;2.00;;;1.08;;
71969;SDS011;59838;52.152;5.436;2023-04-01T14:44:18;2.30;;;1.05;;
71969;SDS011;59838;52.152;5.436;2023-04-01T14:49:34;2.60;;;1.52;;
71969;SDS011;59838;52.152;5.436;2023-04-01T14:52:38;3.13;;;1.85;;
71969;SDS011;59838;52.152;5.436;2023-04-01T14:55:02;4.22;;;2.03;;
71969;SDS011;59838;52.152;5.436;2023-04-01T14:58:39;3.88;;;1.52;;
71969;SDS011;59838;52.152;5.436;2023-04-01T15:07:15;2.47;;;1.90;;
71969;SDS011;59838;52.152;5.436;2023-04-01T15:10:09;2.25;;;1.27;;
71969;SDS011;59838;52.152;5.436;2023-04-01T15:12:52;1.90;;;0.95;;
71969;SDS011;59838;52.152;5.436;2023-04-01T15:25:05;1.90;;;1.20;;
71969;SDS011;59838;52.152;5.436;2023-04-01T15:30:22;2.27;;;1.40;;
71969;SDS011;59838;52.152;5.436;2023-04-01T15:33:39;2.75;;;1.35;;
71969;SDS011;59838;52.152;5.436;2023-04-01T15:46:56;2.08;;;1.25;;
71969;SDS011;59838;52.152;5.436;2023-04-01T15:49:37;2.75;;;1.58;;
71969;SDS011;59838;52.152;5.436;2023-04-01T15:55:13;1.70;;;0.85;;
71969;SDS011;59838;52.152;5.436;2023-04-01T16:00:31;1.70;;;0.80;;
71969;SDS011;59838;52.152;5.436;2023-04-01T16:03:34;3.55;;;0.70;;
71969;SDS011;59838;52.152;5.436;2023-04-01T16:06:44;2.08;;;0.88;;
71969;SDS011;59838;52.152;5.436;2023-04-01T16:17:20;2.90;;;2.00;;
71969;SDS011;59838;52.152;5.436;2023-04-01T16:23:00;2.25;;;1.52;;
71969;SDS011;59838;52.152;5.436;2023-04-01T16:25:36;1.90;;;1.13;;
71969;SDS011;59838;52.152;5.436;2023-04-01T16:28:27;2.33;;;1.35;;
71969;SDS011;59838;52.152;5.436;2023-04-01T16:31:05;2.20;;;1.27;;
71969;SDS011;59838;52.152;5.436;2023-04-01T16:44:44;8.50;;;1.65;;
71969;SDS011;59838;52.152;5.436;2023-04-01T16:47:17;2.78;;;1.83;;
71969;SDS011;59838;52.152;5.436;2023-04-01T16:49:52;2.28;;;1.77;;
71969;SDS011;59838;52.152;5.436;2023-04-01T16:52:48;2.23;;;1.30;;
71969;SDS011;59838;52.152;5.436;2023-04-01T16:58:18;2.53;;;1.17;;
71969;SDS011;59838;52.152;5.436;2023-04-01T17:00:50;2.00;;;1.30;;
71969;SDS011;59838;52.152;5.436;2023-04-01T17:03:24;2.22;;;1.15;;
71969;SDS011;59838;52.152;5.436;2023-04-01T17:06:02;1.80;;;1.00;;
71969;SDS011;59838;52.152;5.436;2023-04-01T17:08:41;1.98;;;1.23;;
71969;SDS011;59838;52.152;5.436;2023-04-01T17:11:44;2.13;;;1.45;;
71969;SDS011;59838;52.152;5.436;2023-04-01T17:19:37;1.83;;;1.07;;
71969;SDS011;59838;52.152;5.436;2023-04-01T17:24:58;1.75;;;1.02;;
71969;SDS011;59838;52.152;5.436;2023-04-01T17:31:18;1.80;;;1.25;;
71969;SDS011;59838;52.152;5.436;2023-04-01T17:39:25;2.40;;;1.05;;
71969;SDS011;59838;52.152;5.436;2023-04-01T17:45:24;2.35;;;1.52;;
71969;SDS011;59838;52.152;5.436;2023-04-01T17:51:11;2.63;;;1.58;;
71969;SDS011;59838;52.152;5.436;2023-04-01T17:54:00;2.42;;;1.45;;
71969;SDS011;59838;52.152;5.436;2023-04-01T18:02:27;1.67;;;1.00;;
71969;SDS011;59838;52.152;5.436;2023-04-01T18:05:15;2.40;;;1.60;;
71969;SDS011;59838;52.152;5.436;2023-04-01T18:10:26;1.95;;;1.35;;
71969;SDS011;59838;52.152;5.436;2023-04-01T18:23:58;2.05;;;1.50;;
71969;SDS011;59838;52.152;5.436;2023-04-01T18:26:34;4.75;;;1.70;;
71969;SDS011;59838;52.152;5.436;2023-04-01T18:29:11;2.40;;;1.97;;
71969;SDS011;59838;52.152;5.436;2023-04-01T18:32:26;2.67;;;1.90;;
71969;SDS011;59838;52.152;5.436;2023-04-01T18:37:34;3.15;;;2.33;;
71969;SDS011;59838;52.152;5.436;2023-04-01T18:40:20;3.10;;;1.55;;
71969;SDS011;59838;52.152;5.436;2023-04-01T18:43:08;2.40;;;1.70;;
71969;SDS011;59838;52.152;5.436;2023-04-01T18:48:33;2.53;;;1.95;;
71969;SDS011;59838;52.152;5.436;2023-04-01T18:51:25;3.03;;;1.77;;
71969;SDS011;59838;52.152;5.436;2023-04-01T18:54:02;3.15;;;1.52;;
71969;SDS011;59838;52.152;5.436;2023-04-01T18:56:37;2.30;;;2.07;;
71969;SDS011;59838;52.152;5.436;2023-04-01T19:01:43;2.10;;;1.60;;
71969;SDS011;59838;52.152;5.436;2023-04-01T19:04:39;1.83;;;1.35;;
71969;SDS011;59838;52.152;5.436;2023-04-01T19:16:12;3.13;;;1.70;;
71969;SDS011;59838;52.152;5.436;2023-04-01T19:21:37;2.50;;;1.90;;
71969;SDS011;59838;52.152;5.436;2023-04-01T19:27:15;2.50;;;2.17;;
71969;SDS011;59838;52.152;5.436;2023-04-01T19:30:14;2.95;;;1.63;;
71969;SDS011;59838;52.152;5.436;2023-04-01T19:33:05;2.40;;;1.83;;
71969;SDS011;59838;52.152;5.436;2023-04-01T19:38:38;2.60;;;1.67;;
71969;SDS011;59838;52.152;5.436;2023-04-01T19:44:30;4.10;;;2.30;;
71969;SDS011;59838;52.152;5.436;2023-04-01T19:46:50;3.75;;;2.63;;
71969;SDS011;59838;52.152;5.436;2023-04-01T19:59:55;3.40;;;2.35;;
71969;SDS011;59838;52.152;5.436;2023-04-01T20:02:37;4.55;;;2.70;;
71969;SDS011;59838;52.152;5.436;2023-04-01T20:05:24;4.80;;;3.43;;
71969;SDS011;59838;52.152;5.436;2023-04-01T20:07:53;4.97;;;2.78;;
71969;SDS011;59838;52.152;5.436;2023-04-01T20:10:37;3.45;;;3.08;;
71969;SDS011;59838;52.152;5.436;2023-04-01T20:13:23;4.70;;;3.22;;
71969;SDS011;59838;52.152;5.436;2023-04-01T20:16:03;4.05;;;3.10;;
71969;SDS011;59838;52.152;5.436;2023-04-01T20:21:28;4.28;;;3.47;;
71969;SDS011;59838;52.152;5.436;2023-04-01T20:23:59;6.47;;;3.35;;
71969;SDS011;59838;52.152;5.436;2023-04-01T20:26:46;4.03;;;3.40;;
71969;SDS011;59838;52.152;5.436;2023-04-01T20:29:27;4.55;;;3.10;;
71969;SDS011;59838;52.152;5.436;2023-04-01T20:37:40;6.18;;;3.78;;
71969;SDS011;59838;52.152;5.436;2023-04-01T20:40:20;4.05;;;3.65;;
71969;SDS011;59838;52.152;5.436;2023-04-01T20:43:22;4.70;;;3.25;;
71969;SDS011;59838;52.152;5.436;2023-04-01T20:45:58;4.43;;;3.30;;
71969;SDS011;59838;52.152;5.436;2023-04-01T20:51:22;3.88;;;3.28;;
71969;SDS011;59838;52.152;5.436;2023-04-01T20:59:16;4.30;;;3.20;;
71969;SDS011;59838;52.152;5.436;2023-04-01T21:04:43;4.53;;;3.22;;
71969;SDS011;59838;52.152;5.436;2023-04-01T21:10:37;4.38;;;3.70;;
71969;SDS011;59838;52.152;5.436;2023-04-01T21:13:29;5.47;;;3.37;;
71969;SDS011;59838;52.152;5.436;2023-04-01T21:30:51;4.55;;;2.85;;
71969;SDS011;59838;52.152;5.436;2023-04-01T21:39:09;4.72;;;3.63;;
71969;SDS011;59838;52.152;5.436;2023-04-01T21:45:13;5.28;;;3.90;;
71969;SDS011;59838;52.152;5.436;2023-04-01T21:47:55;5.05;;;3.58;;
71969;SDS011;59838;52.152;5.436;2023-04-01T22:02:11;5.45;;;3.92;;
71969;SDS011;59838;52.152;5.436;2023-04-01T22:07:33;6.93;;;5.15;;
71969;SDS011;59838;52.152;5.436;2023-04-01T22:10:23;6.90;;;4.30;;
71969;SDS011;59838;52.152;5.436;2023-04-01T22:13:26;5.43;;;3.47;;
71969;SDS011;59838;52.152;5.436;2023-04-01T22:15:59;7.07;;;3.78;;
71969;SDS011;59838;52.152;5.436;2023-04-01T22:18:39;5.15;;;3.85;;
71969;SDS011;59838;52.152;5.436;2023-04-01T22:21:13;5.05;;;3.72;;
71969;SDS011;59838;52.152;5.436;2023-04-01T22:23:58;4.90;;;3.60;;
71969;SDS011;59838;52.152;5.436;2023-04-01T22:31:54;9.73;;;3.75;;
71969;SDS011;59838;52.152;5.436;2023-04-01T22:34:31;6.00;;;3.55;;
71969;SDS011;59838;52.152;5.436;2023-04-01T22:37:18;4.70;;;3.67;;
71969;SDS011;59838;52.152;5.436;2023-04-01T22:40:14;6.97;;;4.93;;
71969;SDS011;59838;52.152;5.436;2023-04-01T22:43:05;5.13;;;3.92;;
71969;SDS011;59838;52.152;5.436;2023-04-01T22:45:40;6.95;;;4.10;;
71969;SDS011;59838;52.152;5.436;2023-04-01T22:51:18;8.50;;;4.83;;
71969;SDS011;59838;52.152;5.436;2023-04-01T22:53:59;6.40;;;4.72;;
71969;SDS011;59838;52.152;5.436;2023-04-01T22:56:37;9.55;;;5.63;;
71969;SDS011;59838;52.152;5.436;2023-04-01T22:59:19;8.75;;;4.32;;
71969;SDS011;59838;52.152;5.436;2023-04-01T23:05:15;8.60;;;4.07;;
71969;SDS011;59838;52.152;5.436;2023-04-01T23:10:40;9.60;;;5.25;;
71969;SDS011;59838;52.152;5.436;2023-04-01T23:13:16;8.65;;;4.47;;
71969;SDS011;59838;52.152;5.436;2023-04-01T23:15:47;9.07;;;5.47;;
71969;SDS011;59838;52.152;5.436;2023-04-01T23:26:30;7.68;;;4.93;;
71969;SDS011;59838;52.152;5.436;2023-04-01T23:29:02;9.80;;;5.75;;
71969;SDS011;59838;52.152;5.436;2023-04-01T23:31:33;6.70;;;4.40;;
71969;SDS011;59838;52.152;5.436;2023-04-01T23:34:48;11.82;;;5.10;;
71969;SDS011;59838;52.152;5.436;2023-04-01T23:36:51;10.07;;;6.07;;
71969;SDS011;59838;52.152;5.436;2023-04-01T23:39:37;11.20;;;5.80;;
71969;SDS011;59838;52.152;5.436;2023-04-01T23:44:46;7.63;;;4.63;;
71969;SDS011;59838;52.152;5.436;2023-04-01T23:47:25;10.65;;;5.47;;
71969;SDS011;59838;52.152;5.436;2023-04-01T23:49:58;9.45;;;5.10;;
71969;SDS011;59838;52.152;5.436;2023-04-01T23:52:30;9.50;;;5.53;;
71969;SDS011;59838;52.152;5.436;2023-04-01T23:55:03;18.67;;;7.13;;
71969;SDS011;59838;52.152;5.436;2023-04-01T23:57:39;11.33;;;5.50;;
